Mac Dill Air Force Base
KMCF : now visible

Airfield :











YOU CAN JOIN US ON...

 
LOGIN :

Register | Disclaimer

   EN    FR    IT 

 









Legend :    VFR   Marginal VFR   IFR   Intensive IFR   Very Intensive IFR
Visi :
Ceiling :
>= 8 km
>= 3000ft
5 to 8 km
1000 to 3000 ft
1500m to 5 km
500 to 1000 ft
800 to 1500m
200 to 500 ft
< 800m
< 200 ft
Symbols :   Thunderstorms  Fog  Heavy snow  Heavy precipitations  Wind > 20 kt






- Airport Elevation : 14 ft


KMCF - Mac Dill Air Force Base

CURRENT METAR :
  • 211856Z AUTO 11009KT 10SM BKN120 28/22 A2998 RMK AO2 SLP155 T02780216 FZRANO $

EXPIRED METARs :
  • 211756Z AUTO 09010KT 10SM FEW110 SCT200 27/22 A3000 RMK AO2 SLP162 T02730218 10275 20234 FZRANO $
  • 211656Z AUTO 09010KT 10SM FEW025 BKN100 26/22 A3001 RMK AO2 SLP165 T02620222 FZRANO $

TAF TAF KMCF
Valid from the 21 at 17:00 until the 22 at 23:00 UTC


211700Z 2117/2223 11010KT 9999 SCT026 SCT100 BKN180 QNH2998INS
BECMG 2120/2121 08012G18KT 8000 -RA VCTS BKN030CB BKN100 BKN200 QNH2995INS
BECMG 2201/2202 06009KT 9000 BR SCT030 QNH2999INS
BECMG 2202/2203 07009KT 9000 BR FEW010 SCT040 QNH2995INS
BECMG 2215/2216 06015KT 9999 NSW SCT020 SCT050 BKN100 QNH2996INS
BECMG 2220/2221 08015G20KT 9000 -SHRA BKN020 BKN060 OVC100 QNH2993INS TX28/2118Z TN22/2212Z
KZMA FIR / North America



MET'MAP, your aeronautical weather chart ! - Copyright ORBIFLY December 2007 - Disclaimer

ORBIFLY MET'MAP TEAM :

Programming & Development : Alexandra Zaïnal
Concept & original design : Baudouin d'Aumeries
Assistance for programming : Marc-Olivier Méhu
Technical & hardware support : Manuel Goepfert

Contact : metmap@orbifly.com




SOURCES & CREDITS :

   NOAA       Earth
Advisory